createdAt,value
2022-12-03T00:02:18.764Z,2.20
2022-12-03T00:04:45.632Z,2.20
2022-12-03T00:07:12.288Z,2.20
2022-12-03T00:09:38.937Z,2.20
2022-12-03T00:12:06.185Z,2.20
2022-12-03T00:14:32.909Z,2.20
2022-12-03T00:17:00.165Z,2.20
2022-12-03T00:19:26.925Z,2.30
2022-12-03T00:21:53.586Z,2.30
2022-12-03T00:24:20.275Z,2.30
2022-12-03T00:26:47.083Z,2.30
2022-12-03T00:29:13.964Z,2.30
2022-12-03T00:31:42.119Z,2.30
2022-12-03T00:34:09.006Z,2.30
2022-12-03T00:36:35.661Z,2.30
2022-12-03T00:39:02.422Z,2.30
2022-12-03T00:41:29.125Z,2.30
2022-12-03T00:43:57.665Z,2.20
2022-12-03T00:46:25.235Z,2.30
2022-12-03T00:48:52.005Z,2.20
2022-12-03T00:51:19.107Z,2.20
2022-12-03T00:53:45.841Z,2.20
2022-12-03T00:56:12.561Z,2.20
2022-12-03T00:58:39.344Z,2.10
2022-12-03T01:01:06.149Z,2.20
2022-12-03T01:03:32.946Z,2.20
2022-12-03T01:05:59.629Z,2.20
2022-12-03T01:08:26.314Z,2.10
2022-12-03T01:10:53.048Z,2.20
2022-12-03T01:13:19.787Z,2.00
2022-12-03T01:15:46.464Z,2.20
2022-12-03T01:18:13.227Z,2.20
2022-12-03T01:20:39.905Z,2.20
2022-12-03T01:23:06.645Z,2.10
2022-12-03T01:25:33.379Z,2.20
2022-12-03T01:28:00.075Z,2.10
2022-12-03T01:30:26.787Z,2.10
2022-12-03T01:32:53.422Z,2.20
2022-12-03T01:35:20.097Z,2.10
2022-12-03T01:37:46.778Z,2.10
2022-12-03T01:40:16.150Z,2.10
2022-12-03T01:42:42.880Z,2.10
2022-12-03T01:45:26.782Z,2.10
2022-12-03T01:47:53.529Z,2.10
2022-12-03T01:50:38.297Z,2.10
2022-12-03T01:53:05.057Z,2.10
2022-12-03T01:55:31.896Z,2.10
2022-12-03T01:58:00.640Z,2.10
2022-12-03T02:00:29.166Z,2.10
2022-12-03T02:03:01.021Z,2.10
2022-12-03T02:05:30.036Z,2.10
2022-12-03T02:07:57.183Z,2.10
2022-12-03T02:10:29.459Z,2.10
2022-12-03T02:13:06.476Z,2.10
2022-12-03T02:15:33.289Z,2.10
2022-12-03T02:18:00.185Z,2.10
2022-12-03T02:20:26.921Z,2.10
2022-12-03T02:22:59.468Z,2.10
2022-12-03T02:25:28.115Z,2.10
2022-12-03T02:27:55.686Z,2.10
2022-12-03T02:30:24.538Z,2.00
2022-12-03T02:32:51.904Z,2.00
2022-12-03T02:35:27.074Z,2.00
2022-12-03T02:38:17.567Z,2.00
2022-12-03T02:40:46.016Z,1.90
2022-12-03T02:43:14.704Z,1.90
2022-12-03T02:45:43.571Z,1.80
2022-12-03T02:48:16.537Z,1.80
2022-12-03T02:50:47.005Z,1.70
2022-12-03T02:53:17.718Z,1.60
2022-12-03T02:55:45.027Z,1.60
2022-12-03T02:58:12.062Z,1.60
2022-12-03T03:00:40.614Z,1.60
2022-12-03T03:03:08.449Z,1.70
2022-12-03T03:05:37.141Z,1.70
2022-12-03T03:08:04.878Z,1.70
2022-12-03T03:10:33.677Z,1.70
2022-12-03T03:13:00.992Z,1.70
2022-12-03T03:15:27.700Z,1.70
2022-12-03T03:17:54.465Z,1.70
2022-12-03T03:20:21.138Z,1.70
2022-12-03T03:22:47.842Z,1.70
2022-12-03T03:25:17.656Z,1.60
2022-12-03T03:27:44.825Z,1.60
2022-12-03T03:30:12.378Z,1.60
2022-12-03T03:32:39.774Z,1.60
2022-12-03T03:35:09.774Z,1.60
2022-12-03T03:37:36.536Z,1.60
2022-12-03T03:40:03.702Z,1.60
2022-12-03T03:42:30.420Z,1.60
2022-12-03T03:44:57.142Z,1.60
2022-12-03T03:47:24.046Z,1.60
2022-12-03T03:49:50.813Z,1.60
2022-12-03T03:52:19.113Z,1.60
2022-12-03T03:54:46.124Z,1.60
2022-12-03T03:57:12.874Z,1.60
2022-12-03T03:59:39.623Z,1.60
2022-12-03T04:02:06.264Z,1.60
2022-12-03T04:04:35.746Z,1.60
2022-12-03T04:07:02.688Z,1.70
2022-12-03T04:09:29.373Z,1.70
2022-12-03T04:12:14.588Z,1.70
2022-12-03T04:14:41.239Z,1.70
2022-12-03T04:17:07.878Z,1.70
2022-12-03T04:19:34.551Z,1.70
2022-12-03T04:22:19.938Z,1.80
2022-12-03T04:24:46.579Z,1.80
2022-12-03T04:27:31.782Z,1.80
2022-12-03T04:29:58.371Z,1.80
2022-12-03T04:32:43.576Z,1.80
2022-12-03T04:35:28.826Z,1.80
2022-12-03T04:37:55.935Z,1.80
2022-12-03T04:40:41.019Z,1.80
2022-12-03T04:43:08.180Z,1.90
2022-12-03T04:45:34.871Z,1.80
2022-12-03T04:48:01.704Z,1.90
2022-12-03T04:50:28.326Z,1.90
2022-12-03T04:52:54.994Z,1.90
2022-12-03T04:55:21.621Z,1.90
2022-12-03T04:57:48.295Z,1.90
2022-12-03T05:00:15.579Z,1.90
2022-12-03T05:02:42.276Z,1.90
2022-12-03T05:05:09.931Z,1.90
2022-12-03T05:07:37.167Z,1.90
2022-12-03T05:10:05.711Z,1.90
2022-12-03T05:12:32.423Z,2.00
2022-12-03T05:14:59.764Z,2.00
2022-12-03T05:17:26.472Z,2.00
2022-12-03T05:20:11.747Z,2.00
2022-12-03T05:22:38.435Z,2.20
2022-12-03T05:25:05.581Z,2.00
2022-12-03T05:27:32.393Z,2.00
2022-12-03T05:29:59.088Z,2.00
2022-12-03T05:32:25.764Z,2.00
2022-12-03T05:34:52.933Z,2.00
2022-12-03T05:37:19.916Z,2.00
2022-12-03T05:39:46.664Z,2.00
2022-12-03T05:42:31.869Z,2.00
2022-12-03T05:44:58.448Z,2.00
2022-12-03T05:47:25.144Z,2.00
2022-12-03T05:49:51.818Z,2.00
2022-12-03T05:52:18.484Z,2.00
2022-12-03T05:54:45.126Z,2.00
2022-12-03T05:57:11.887Z,2.00
2022-12-03T05:59:38.557Z,2.00
2022-12-03T06:02:05.295Z,1.90
2022-12-03T06:04:32.006Z,2.00
2022-12-03T06:06:58.656Z,2.00
2022-12-03T06:09:25.333Z,2.00
2022-12-03T06:11:54.047Z,2.00
2022-12-03T06:14:21.282Z,2.00
2022-12-03T06:16:48.028Z,2.00
2022-12-03T06:19:14.675Z,2.00
2022-12-03T06:21:41.352Z,1.90
2022-12-03T06:24:08.098Z,2.00
2022-12-03T06:26:34.792Z,2.00
2022-12-03T06:29:01.436Z,2.00
2022-12-03T06:31:28.172Z,1.90
2022-12-03T06:33:54.834Z,2.00
2022-12-03T06:36:23.371Z,2.00
2022-12-03T06:38:50.336Z,2.00
2022-12-03T06:41:16.982Z,2.00
2022-12-03T06:43:43.657Z,2.00
2022-12-03T06:46:10.436Z,2.00
2022-12-03T06:48:37.138Z,2.00
2022-12-03T06:51:03.876Z,2.00
2022-12-03T06:53:30.573Z,2.00
2022-12-03T06:55:57.421Z,2.00
2022-12-03T06:58:24.105Z,2.00
2022-12-03T07:00:50.833Z,2.00
2022-12-03T07:03:17.615Z,2.00
2022-12-03T07:05:44.288Z,2.00
2022-12-03T07:08:11.011Z,2.00
2022-12-03T07:10:37.746Z,2.00
2022-12-03T07:13:04.425Z,2.00
2022-12-03T07:15:31.146Z,2.00
2022-12-03T07:17:57.807Z,2.00
2022-12-03T07:20:24.508Z,2.00
2022-12-03T07:22:51.200Z,2.00
2022-12-03T07:25:22.807Z,2.00
2022-12-03T07:27:50.008Z,2.00
2022-12-03T07:30:16.874Z,2.00
2022-12-03T07:32:43.555Z,2.00
2022-12-03T07:35:10.420Z,2.00
2022-12-03T07:37:37.191Z,2.00
2022-12-03T07:40:05.155Z,2.00
2022-12-03T07:42:31.831Z,2.00
2022-12-03T07:44:58.517Z,2.00
2022-12-03T07:47:25.223Z,2.10
2022-12-03T07:49:51.904Z,2.10
2022-12-03T07:52:18.583Z,2.10
2022-12-03T07:54:45.247Z,2.10
2022-12-03T07:57:11.956Z,2.10
2022-12-03T07:59:38.677Z,2.10
2022-12-03T08:02:05.497Z,2.10
2022-12-03T08:04:32.361Z,2.10
2022-12-03T08:06:59.299Z,2.00
2022-12-03T08:09:26.543Z,2.10
2022-12-03T08:11:53.842Z,2.10
2022-12-03T08:14:20.863Z,2.10
2022-12-03T08:16:48.024Z,2.10
2022-12-03T08:19:16.659Z,2.10
2022-12-03T08:21:43.863Z,2.10
2022-12-03T08:24:29.214Z,2.10
2022-12-03T08:26:57.277Z,2.10
2022-12-03T08:29:24.514Z,2.00
2022-12-03T08:31:55.193Z,2.00
2022-12-03T08:34:24.424Z,2.00
2022-12-03T08:36:59.467Z,2.00
2022-12-03T08:39:33.489Z,2.00
2022-12-03T08:42:33.629Z,2.00
2022-12-03T08:45:22.972Z,2.00
2022-12-03T08:47:49.666Z,2.10
2022-12-03T08:50:30.854Z,2.10
2022-12-03T08:53:32.537Z,2.10
2022-12-03T08:56:23.979Z,2.10
2022-12-03T08:58:54.928Z,2.10
2022-12-03T09:01:39.571Z,2.10
2022-12-03T09:04:21.646Z,2.20
2022-12-03T09:06:48.653Z,2.20
2022-12-03T09:09:15.724Z,2.20
2022-12-03T09:11:43.210Z,2.20
2022-12-03T09:14:15.114Z,2.20
2022-12-03T09:16:45.048Z,2.20
2022-12-03T09:19:11.860Z,2.20
2022-12-03T09:21:38.489Z,2.20
2022-12-03T09:24:05.385Z,2.20
2022-12-03T09:26:32.150Z,2.20
2022-12-03T09:28:58.817Z,2.20
2022-12-03T09:31:25.663Z,2.20
2022-12-03T09:33:52.454Z,2.20
2022-12-03T09:36:19.139Z,2.20
2022-12-03T09:38:47.930Z,2.20
2022-12-03T09:41:15.238Z,2.20
2022-12-03T09:46:29.375Z,2.20
2022-12-03T09:48:56.702Z,2.20
2022-12-03T09:51:26.108Z,2.20
2022-12-03T09:53:52.863Z,2.20
2022-12-03T09:56:22.516Z,2.30
2022-12-03T09:58:49.800Z,2.30
2022-12-03T10:01:17.279Z,2.20
2022-12-03T10:03:46.981Z,2.30
2022-12-03T10:06:21.060Z,2.30
2022-12-03T10:08:53.506Z,2.40
2022-12-03T10:11:22.125Z,2.40
2022-12-03T10:13:48.933Z,2.50
2022-12-03T10:16:17.652Z,2.50
2022-12-03T10:18:55.842Z,2.60
2022-12-03T10:21:36.912Z,2.60
2022-12-03T10:24:28.505Z,2.60
2022-12-03T10:26:58.088Z,2.60
2022-12-03T10:29:35.516Z,2.60
2022-12-03T10:32:10.375Z,2.60
2022-12-03T10:34:38.190Z,2.60
2022-12-03T10:37:19.186Z,2.60
2022-12-03T10:40:01.834Z,2.60
2022-12-03T10:42:33.734Z,2.70
2022-12-03T10:45:18.405Z,2.60
2022-12-03T10:48:02.248Z,2.60
2022-12-03T10:50:29.220Z,2.60
2022-12-03T10:52:56.209Z,2.60
2022-12-03T10:55:22.922Z,2.60
2022-12-03T10:57:49.602Z,2.60
2022-12-03T11:00:20.289Z,2.60
2022-12-03T11:02:54.649Z,2.60
2022-12-03T11:05:27.298Z,2.60
2022-12-03T11:07:54.293Z,2.60
2022-12-03T11:10:21.406Z,2.60
2022-12-03T11:13:38.032Z,2.60
2022-12-03T11:16:07.411Z,2.60
2022-12-03T11:18:37.089Z,2.60
2022-12-03T11:21:08.496Z,2.60
2022-12-03T11:23:44.400Z,2.60
2022-12-03T11:26:18.976Z,2.60
2022-12-03T11:28:46.418Z,2.60
2022-12-03T11:31:39.584Z,2.60
2022-12-03T11:34:18.486Z,2.70
2022-12-03T11:37:31.173Z,2.70
2022-12-03T11:40:16.442Z,2.60
2022-12-03T11:42:43.972Z,2.60
2022-12-03T11:45:10.599Z,2.60
2022-12-03T11:47:39.135Z,2.50
2022-12-03T11:50:22.532Z,2.50
2022-12-03T11:52:59.145Z,2.50
2022-12-03T11:55:30.275Z,2.40
2022-12-03T11:57:58.672Z,2.50
2022-12-03T12:00:25.624Z,2.40
2022-12-03T12:02:54.872Z,2.40
2022-12-03T12:05:32.724Z,2.40
2022-12-03T12:08:02.952Z,2.40
2022-12-03T12:10:49.396Z,2.30
2022-12-03T12:13:48.236Z,2.30
2022-12-03T12:16:36.415Z,2.30
2022-12-03T12:19:28.195Z,2.30
2022-12-03T12:21:55.281Z,2.30
2022-12-03T12:24:40.720Z,2.30
2022-12-03T12:27:14.923Z,2.40
2022-12-03T12:29:43.349Z,2.30
2022-12-03T12:32:10.633Z,2.40
2022-12-03T12:34:38.475Z,2.40
2022-12-03T12:37:32.091Z,2.30
2022-12-03T12:39:59.189Z,2.30
2022-12-03T12:42:37.630Z,2.30
2022-12-03T12:45:16.659Z,2.30
2022-12-03T12:48:07.374Z,2.40
2022-12-03T12:50:34.050Z,2.40
2022-12-03T12:53:27.236Z,2.40
2022-12-03T12:55:58.659Z,2.30
2022-12-03T12:58:26.272Z,2.40
2022-12-03T13:00:58.839Z,2.40
2022-12-03T13:03:28.253Z,2.30
2022-12-03T13:05:57.124Z,2.30
2022-12-03T13:08:39.455Z,2.30
2022-12-03T13:11:06.443Z,2.30
2022-12-03T13:13:44.031Z,2.20
2022-12-03T13:16:25.165Z,2.20
2022-12-03T13:18:56.678Z,2.10
2022-12-03T13:21:33.595Z,2.10
2022-12-03T13:24:01.256Z,2.00
2022-12-03T13:26:39.252Z,1.90
2022-12-03T13:29:14.502Z,1.90
2022-12-03T13:34:33.231Z,1.90
2022-12-03T13:37:01.344Z,1.90
2022-12-03T13:42:46.340Z,1.90
2022-12-03T13:45:19.329Z,1.90
2022-12-03T13:48:31.496Z,1.90
2022-12-03T13:51:02.165Z,1.80
2022-12-03T13:53:37.382Z,1.80
2022-12-03T13:56:27.760Z,1.80
2022-12-03T13:58:55.406Z,1.80
2022-12-03T14:01:22.232Z,1.80
2022-12-03T14:03:49.534Z,1.80
2022-12-03T14:06:16.250Z,1.80
2022-12-03T14:08:51.610Z,1.80
2022-12-03T14:11:44.781Z,1.80
2022-12-03T14:14:34.159Z,1.80
2022-12-03T14:17:15.725Z,1.60
2022-12-03T14:19:48.627Z,1.80
2022-12-03T14:22:26.787Z,1.20
2022-12-03T14:24:54.183Z,1.50
2022-12-03T14:27:22.149Z,1.20
2022-12-03T14:29:49.116Z,1.60
2022-12-03T14:32:16.777Z,2.90
2022-12-03T14:34:44.465Z,1.60
2022-12-03T14:37:12.016Z,1.50
2022-12-03T14:39:40.022Z,2.20
2022-12-03T14:42:18.421Z,2.70
2022-12-03T14:44:49.750Z,2.60
2022-12-03T14:47:19.450Z,0.70
2022-12-03T14:49:46.564Z,1.30
2022-12-03T14:52:13.853Z,1.30
2022-12-03T14:54:45.732Z,1.30
2022-12-03T14:57:14.563Z,1.30
2022-12-03T14:59:42.960Z,1.00
2022-12-03T15:02:11.616Z,2.30
2022-12-03T15:04:40.383Z,1.30
2022-12-03T15:07:08.310Z,2.80
2022-12-03T15:09:35.795Z,2.40
2022-12-03T15:12:04.043Z,2.60
2022-12-03T15:14:31.667Z,2.70
2022-12-03T15:16:59.147Z,1.30
2022-12-03T15:19:26.949Z,1.30
2022-12-03T15:21:54.323Z,1.20
2022-12-03T15:24:21.793Z,1.60
2022-12-03T15:26:49.717Z,1.20
2022-12-03T15:29:17.414Z,2.60
2022-12-03T15:31:44.956Z,1.20
2022-12-03T15:34:16.097Z,1.80
2022-12-03T15:36:45.597Z,0.80
2022-12-03T15:39:12.881Z,1.10
2022-12-03T15:41:39.562Z,1.20
2022-12-03T15:44:06.384Z,1.20
2022-12-03T15:46:33.163Z,1.20
2022-12-03T15:48:59.949Z,1.20
2022-12-03T15:51:26.788Z,1.20
2022-12-03T15:53:53.532Z,1.20
2022-12-03T15:56:20.337Z,1.20
2022-12-03T15:58:46.998Z,1.20
2022-12-03T16:01:14.028Z,1.20
2022-12-03T16:03:41.502Z,1.20
2022-12-03T16:06:08.348Z,1.20
2022-12-03T16:08:35.123Z,1.20
2022-12-03T16:11:01.825Z,1.20
2022-12-03T16:13:28.466Z,1.20
2022-12-03T16:15:55.213Z,1.20
2022-12-03T16:18:22.018Z,1.20
2022-12-03T16:20:48.836Z,1.20
2022-12-03T16:23:15.544Z,1.20
2022-12-03T16:25:42.244Z,1.30
2022-12-03T16:28:08.916Z,1.30
2022-12-03T16:30:36.598Z,1.30
2022-12-03T16:33:03.384Z,1.30
2022-12-03T16:35:30.117Z,1.30
2022-12-03T16:37:56.750Z,1.30
2022-12-03T16:40:23.393Z,1.30
2022-12-03T16:42:50.049Z,1.30
2022-12-03T16:45:22.504Z,1.30
2022-12-03T16:47:49.871Z,1.30
2022-12-03T16:50:24.296Z,1.30
2022-12-03T16:52:54.529Z,1.30
2022-12-03T16:55:21.621Z,1.30
2022-12-03T16:57:48.370Z,1.30
2022-12-03T17:00:15.611Z,1.20
2022-12-03T17:02:42.341Z,1.20
2022-12-03T17:05:09.186Z,1.20
2022-12-03T17:07:36.013Z,1.20
2022-12-03T17:10:02.785Z,1.20
2022-12-03T17:12:42.312Z,1.10
2022-12-03T17:15:16.446Z,1.10
2022-12-03T17:17:43.134Z,1.10
2022-12-03T17:20:12.382Z,1.10
2022-12-03T17:22:39.435Z,1.10
2022-12-03T17:25:06.910Z,1.10
2022-12-03T17:27:33.624Z,1.10
2022-12-03T17:30:00.741Z,1.20
2022-12-03T17:32:27.488Z,1.10
2022-12-03T17:34:54.246Z,1.10
2022-12-03T17:37:20.950Z,1.10
2022-12-03T17:39:47.752Z,1.10
2022-12-03T17:42:14.703Z,1.10
2022-12-03T17:44:41.842Z,1.10
2022-12-03T17:47:08.513Z,1.10
2022-12-03T17:49:35.282Z,1.10
2022-12-03T17:52:01.998Z,1.10
2022-12-03T17:54:49.044Z,1.10
2022-12-03T17:57:15.699Z,1.10
2022-12-03T17:59:42.381Z,1.10
2022-12-03T18:02:10.204Z,1.00
2022-12-03T18:04:36.928Z,1.00
2022-12-03T18:07:03.812Z,1.00
2022-12-03T18:09:30.535Z,1.00
2022-12-03T18:11:57.255Z,1.00
2022-12-03T18:14:23.923Z,0.90
2022-12-03T18:16:50.629Z,0.90
2022-12-03T18:19:17.333Z,0.90
2022-12-03T18:21:44.066Z,1.00
2022-12-03T18:24:10.750Z,0.90
2022-12-03T18:26:37.484Z,0.90
2022-12-03T18:29:04.149Z,0.90
2022-12-03T18:31:30.911Z,1.00
2022-12-03T18:33:57.644Z,1.00
2022-12-03T18:36:26.184Z,0.90
2022-12-03T18:38:55.348Z,0.90
2022-12-03T18:41:25.281Z,0.90
2022-12-03T18:43:52.151Z,1.00
2022-12-03T18:49:06.921Z,1.00
2022-12-03T18:51:33.678Z,1.00
2022-12-03T18:54:00.467Z,1.00
2022-12-03T18:56:27.257Z,1.00
2022-12-03T18:58:53.905Z,0.90
2022-12-03T19:01:22.013Z,0.90
2022-12-03T19:03:49.440Z,0.90
2022-12-03T19:06:19.272Z,0.80
2022-12-03T19:08:48.147Z,0.80
2022-12-03T19:11:15.406Z,0.80
2022-12-03T19:13:42.521Z,0.80
2022-12-03T19:16:10.226Z,0.80
2022-12-03T19:18:36.960Z,0.70
2022-12-03T19:21:14.116Z,0.80
2022-12-03T19:23:40.946Z,0.70
2022-12-03T19:26:09.912Z,0.80
2022-12-03T19:28:36.806Z,0.80
2022-12-03T19:31:12.862Z,0.80
2022-12-03T19:33:40.108Z,0.80
2022-12-03T19:36:07.962Z,0.80
2022-12-03T19:38:35.241Z,0.80
2022-12-03T19:41:03.172Z,0.90
2022-12-03T19:43:31.755Z,0.90
2022-12-03T19:46:03.450Z,0.90
2022-12-03T19:48:32.045Z,0.90
2022-12-03T19:51:26.206Z,0.90
2022-12-03T19:53:46.298Z,0.90
2022-12-03T19:56:18.522Z,0.90
2022-12-03T19:58:46.280Z,0.80
2022-12-03T20:01:18.154Z,0.80
2022-12-03T20:03:47.632Z,0.80
2022-12-03T20:06:16.077Z,0.80
2022-12-03T20:08:43.022Z,0.80
2022-12-03T20:11:13.953Z,0.80
2022-12-03T20:13:40.953Z,0.80
2022-12-03T20:16:12.009Z,2.40
2022-12-03T20:18:43.522Z,0.80
2022-12-03T20:21:12.266Z,0.80
2022-12-03T20:23:39.124Z,0.80
2022-12-03T20:26:11.463Z,0.70
2022-12-03T20:28:38.403Z,0.80
2022-12-03T20:31:10.769Z,0.80
2022-12-03T20:33:38.405Z,0.80
2022-12-03T20:36:05.766Z,0.80
2022-12-03T20:38:32.495Z,0.80
2022-12-03T20:41:06.888Z,0.80
2022-12-03T20:43:34.447Z,0.80
2022-12-03T20:46:19.942Z,0.80
2022-12-03T20:48:47.261Z,0.80
2022-12-03T20:51:16.504Z,0.80
2022-12-03T20:53:43.803Z,0.80
2022-12-03T20:56:10.801Z,0.80
2022-12-03T20:58:37.648Z,0.60
2022-12-03T21:01:15.958Z,0.80
2022-12-03T21:03:43.927Z,0.80
2022-12-03T21:06:11.387Z,0.80
2022-12-03T21:08:41.970Z,0.80
2022-12-03T21:11:15.251Z,0.80
2022-12-03T21:13:43.695Z,0.80
2022-12-03T21:16:13.770Z,0.80
2022-12-03T21:18:40.942Z,0.80
2022-12-03T21:21:08.570Z,0.80
2022-12-03T21:23:35.868Z,0.80
2022-12-03T21:26:10.827Z,0.80
2022-12-03T21:28:39.242Z,0.80
2022-12-03T21:31:08.843Z,0.80
2022-12-03T21:33:35.998Z,0.80
2022-12-03T21:36:03.487Z,0.80
2022-12-03T21:38:30.983Z,0.80
2022-12-03T21:40:58.533Z,0.80
2022-12-03T21:43:25.539Z,0.80
2022-12-03T21:45:53.028Z,0.80
2022-12-03T21:48:20.155Z,0.80
2022-12-03T21:51:06.894Z,0.80
2022-12-03T21:53:37.920Z,0.80
2022-12-03T21:56:19.334Z,0.80
2022-12-03T21:58:46.439Z,0.70
2022-12-03T22:01:22.186Z,0.70
2022-12-03T22:03:49.389Z,0.70
2022-12-03T22:06:16.650Z,0.70
2022-12-03T22:08:43.972Z,0.80
2022-12-03T22:11:13.319Z,0.70
2022-12-03T22:13:40.709Z,0.70
2022-12-03T22:16:09.885Z,0.70
2022-12-03T22:18:36.891Z,0.70
2022-12-03T22:21:05.388Z,0.80
2022-12-03T22:23:33.133Z,0.70
2022-12-03T22:26:02.072Z,0.70
2022-12-03T22:28:29.090Z,0.70
2022-12-03T22:30:55.761Z,0.70
2022-12-03T22:33:22.631Z,0.70
2022-12-03T22:36:00.071Z,0.70
2022-12-03T22:38:28.226Z,0.70
2022-12-03T22:40:54.994Z,0.70
2022-12-03T22:43:21.740Z,0.60
2022-12-03T22:45:48.752Z,0.60
2022-12-03T22:48:15.617Z,0.60
2022-12-03T22:50:46.236Z,0.60
2022-12-03T22:53:13.402Z,0.50
2022-12-03T22:55:40.860Z,0.50
2022-12-03T22:58:08.470Z,0.50
2022-12-03T23:00:38.122Z,0.50
2022-12-03T23:03:05.723Z,0.50
2022-12-03T23:05:36.398Z,0.50
2022-12-03T23:08:07.754Z,0.50
2022-12-03T23:10:36.262Z,0.40
2022-12-03T23:13:03.669Z,0.40
2022-12-03T23:15:30.452Z,0.40
2022-12-03T23:17:57.475Z,0.40
2022-12-03T23:20:24.654Z,0.40
2022-12-03T23:22:51.992Z,0.50
2022-12-03T23:25:19.179Z,0.50
2022-12-03T23:27:46.449Z,0.50
2022-12-03T23:30:14.402Z,0.60
2022-12-03T23:32:44.843Z,0.50
2022-12-03T23:35:12.587Z,0.50
2022-12-03T23:37:42.336Z,0.60
2022-12-03T23:40:09.500Z,0.50
2022-12-03T23:42:36.173Z,0.60
2022-12-03T23:45:03.473Z,0.50
2022-12-03T23:47:30.200Z,0.60
2022-12-03T23:49:57.462Z,0.60
2022-12-03T23:52:24.480Z,0.60
2022-12-03T23:54:51.165Z,0.60
2022-12-03T23:57:18.337Z,0.50
2022-12-03T23:59:45.130Z,0.50
